Date,TemperatureHighF,TemperatureAvgF,TemperatureLowF,DewpointHighF,DewpointAvgF,DewpointLowF,HumidityHigh,HumidityAvg,HumidityLow,PressureMaxIn,PressureMinIn,WindSpeedMaxMPH,WindSpeedAvgMPH,GustSpeedMaxMPH,PrecipitationSumIn
2013-1-5,29.0,29.0,29.0,25.0,25.0,25.0,84,84,84,0.00,40.00,1,1,1,0.00
2013-1-6,33.0,28.0,22.0,30.0,26.0,20.0,95,91,88,0.00,40.00,1,1,1,0.00
2013-1-7,37.0,33.5,30.0,35.0,31.5,28.0,92,92,92,0.00,40.00,1,1,1,0.00
2013-1-8,34.0,33.0,32.0,32.0,31.0,30.0,92,92,92,0.00,40.00,1,1,1,0.00
2013-1-9,31.0,29.5,28.0,29.0,27.5,26.0,92,92,92,0.00,40.00,1,1,1,0.00
2013-1-11,24.0,16.0,8.0,21.0,12.5,4.0,88,86,83,0.00,40.00,1,1,1,0.00
2013-1-12,17.0,10.3,6.0,12.0,6.0,2.0,83,82,80,0.00,40.00,1,1,1,0.00
2013-1-13,21.0,14.7,3.0,14.0,9.0,-1.0,82,77,73,0.00,40.00,1,1,1,0.00
2013-1-14,32.0,22.7,17.0,26.0,18.7,14.0,87,84,78,0.00,40.00,1,1,1,0.00
2013-1-16,32.0,25.5,20.0,24.0,21.5,18.0,95,85,69,0.00,40.00,1,1,1,0.00
2013-1-17,23.0,21.3,18.0,21.0,19.3,17.0,95,91,88,0.00,40.00,1,1,1,0.00
2013-1-18,27.0,20.0,12.0,25.0,18.0,10.0,95,91,88,0.00,40.00,1,1,1,0.00
2013-1-19,28.0,23.5,19.0,22.0,19.5,17.0,91,84,77,0.00,40.00,1,1,1,0.00
2013-1-20,26.0,16.0,11.0,21.0,13.2,9.0,91,88,81,0.00,40.00,1,1,1,0.00
2013-1-21,17.0,10.2,7.0,15.0,7.8,4.0,91,89,87,0.00,40.00,1,1,1,0.00
2013-1-22,18.0,18.0,18.0,15.0,15.0,15.0,87,87,87,0.00,40.00,1,1,1,0.00
2013-1-23,26.0,22.2,20.0,22.0,19.5,18.0,91,88,84,0.00,40.00,1,1,1,0.00
2013-1-24,15.0,14.0,13.0,13.0,12.0,11.0,91,91,91,0.00,40.00,1,1,1,0.00
2013-1-25,33.0,32.5,32.0,32.0,30.5,29.0,96,92,88,0.00,40.00,1,1,1,0.00
2013-1-26,31.0,31.0,31.0,29.0,29.0,29.0,92,92,92,0.00,40.00,1,1,1,0.00
2013-1-27,35.0,27.5,20.0,29.0,23.5,18.0,91,84,78,0.00,40.00,1,1,1,0.00
2013-1-29,39.0,39.0,39.0,34.0,34.0,34.0,82,82,82,0.00,40.00,1,1,1,0.00
2013-1-31,38.0,37.0,36.0,34.0,33.5,33.0,88,86,85,0.00,40.00,1,1,1,0.00